Time;durP1;ratioP1;P1;durP2;ratioP2;P2;SDS_P1;SDS_P2;PMS_P1;PMS_P2;Temp;Humidity;BMP_temperature;BMP_pressure;BME280_temperature;BME280_humidity;BME280_pressure;Samples;Min_cycle;Max_cycle;Signal;HPM_P1;HPM_P2
2021/06/07 00:00:06;;;;;;;;;;;;;;;15.22;100.00;96273.25;1279034;23;20306;-72
2021/06/07 00:00:38;;;;;;;;;;;;;;;15.20;100.00;96275.41;1272782;23;20216;-72
2021/06/07 00:01:08;;;;;;;;;;;;;;;15.19;100.00;96274.63;1266956;23;19932;-72
2021/06/07 00:01:41;;;;;;;;;;;;;;;15.22;100.00;96278.63;1273248;23;20361;-72
2021/06/07 00:02:11;;;;;;;;;;;;;;;15.20;100.00;96276.25;1278920;23;19983;-72
2021/06/07 00:02:41;;;;;;;;;;;;;;;15.20;100.00;96275.41;1279056;23;19904;-72
2021/06/07 00:03:12;;;;;;;;;;;;;;;15.18;100.00;96277.59;1279252;23;19971;-72
2021/06/07 00:03:42;;;;;;;;;;;;;;;15.18;100.00;96278.41;1278964;23;20425;-72
2021/06/07 00:04:12;;;;;;;;;;;;;;;15.19;100.00;96279.19;1278951;23;20310;-72
2021/06/07 00:04:42;;;;;;;;;;;;;;;15.18;100.00;96280.31;1279037;23;19904;-72
2021/06/07 00:05:13;;;;;;;;;;;;;;;15.18;100.00;96274.91;1278908;23;19904;-72
2021/06/07 00:05:43;;;;;;;;;;;;;;;15.17;100.00;96281.41;1278939;23;19957;-72
2021/06/07 00:06:13;;;;;;;;;;;;;;;15.18;100.00;96272.22;1278865;23;19910;-72
2021/06/07 00:06:44;;;;;;;;;;;;;;;15.13;100.00;96275.78;1278966;23;19904;-72
2021/06/07 00:07:14;;;;;;;;;;;;;;;15.14;100.00;96279.28;1272857;23;20365;-72
2021/06/07 00:07:44;;;;;;;;;;;;;;;15.12;100.00;96274.19;1272810;23;19912;-72
2021/06/07 00:08:15;;;;;;;;;;;;;;;15.13;100.00;96278.47;1278974;23;19904;-72
2021/06/07 00:08:45;;;;;;;;;;;;;;;15.12;100.00;96282.28;1278960;23;19908;-72
2021/06/07 00:09:16;;;;;;;;;;;;;;;15.12;100.00;96278.78;1278799;23;19954;-72
2021/06/07 00:09:46;;;;;;;;;;;;;;;15.11;100.00;96280.69;1272816;23;19908;-72
2021/06/07 00:10:16;;;;;;;;;;;;;;;15.11;100.00;96274.50;1266645;23;19904;-72
2021/06/07 00:10:47;;;;;;;;;;;;;;;15.09;100.00;96275.56;1266768;23;19940;-72
2021/06/07 00:11:17;;;;;;;;;;;;;;;15.10;100.00;96271.00;1272839;23;19904;-72
2021/06/07 00:11:48;;;;;;;;;;;;;;;15.09;100.00;96278.25;1272825;23;19905;-72
2021/06/07 00:12:19;;;;;;;;;;;;;;;15.11;100.00;96277.97;1273034;23;20301;-72
2021/06/07 00:12:49;;;;;;;;;;;;;;;15.09;100.00;96280.16;1278985;23;19904;-72
2021/06/07 00:13:20;;;;;;;;;;;;;;;15.09;100.00;96277.47;1266937;23;19956;-72
2021/06/07 00:13:51;;;;;;;;;;;;;;;15.11;100.00;96279.88;1266714;23;20262;-72
2021/06/07 00:14:21;;;;;;;;;;;;;;;15.09;100.00;96280.94;1266663;23;19979;-72
2021/06/07 00:14:52;;;;;;;;;;;;;;;15.08;100.00;96275.88;1267307;23;19912;-72
2021/06/07 00:15:22;;;;;;;;;;;;;;;15.07;100.00;96280.44;1279007;23;19904;-72
2021/06/07 00:15:53;;;;;;;;;;;;;;;15.08;100.00;96279.34;1278887;23;20237;-72
2021/06/07 00:16:23;;;;;;;;;;;;;;;15.07;100.00;96277.75;1278927;23;20340;-72
2021/06/07 00:16:54;;;;;;;;;;;;;;;15.08;100.00;96279.34;1278884;23;19911;-72
2021/06/07 00:17:24;;;;;;;;;;;;;;;15.08;100.00;96268.59;1278895;23;19999;-72
2021/06/07 00:17:54;;;;;;;;;;;;;;;15.06;100.00;96276.16;1279339;23;19920;-72
2021/06/07 00:18:24;;;;;;;;;;;;;;;15.07;100.00;96266.19;1278767;23;19904;-72
2021/06/07 00:18:55;;;;;;;;;;;;;;;15.08;100.00;96278.56;1278967;23;20330;-72
2021/06/07 00:19:26;;;;;;;;;;;;;;;15.09;100.00;96275.56;1278914;23;19904;-72
2021/06/07 00:19:56;;;;;;;;;;;;;;;15.11;100.00;96277.19;1273072;23;19983;-72
2021/06/07 00:20:31;;;;;;;;;;;;;;;15.09;100.00;96275.56;1272725;23;19904;-72
2021/06/07 00:21:11;;;;;;;;;;;;;;;15.07;100.00;96266.19;1272795;23;19904;-72
2021/06/07 00:21:42;;;;;;;;;;;;;;;15.07;100.00;96272.38;1275580;23;19971;-72
2021/06/07 00:22:12;;;;;;;;;;;;;;;15.07;100.00;96277.75;1279179;23;19904;-72
2021/06/07 00:22:42;;;;;;;;;;;;;;;15.08;100.00;96267.78;1279228;23;19908;-72
2021/06/07 00:23:13;;;;;;;;;;;;;;;15.09;100.00;96275.56;1272712;23;19959;-72
2021/06/07 00:23:43;;;;;;;;;;;;;;;15.09;100.00;96278.25;1272717;23;20285;-72
2021/06/07 00:24:13;;;;;;;;;;;;;;;15.09;100.00;96275.56;1266660;23;19912;-73
2021/06/07 00:24:43;;;;;;;;;;;;;;;15.10;100.00;96271.00;1266755;23;19915;-72
2021/06/07 00:25:14;;;;;;;;;;;;;;;15.09;100.00;96275.56;1278941;23;19904;-72
2021/06/07 00:25:45;;;;;;;;;;;;;;;15.08;100.00;96276.66;1278907;23;19908;-72
2021/06/07 00:26:16;;;;;;;;;;;;;;;15.08;100.00;96271.28;1279301;23;19947;-72
2021/06/07 00:26:46;;;;;;;;;;;;;;;15.08;100.00;96282.03;1279235;23;19914;-72
2021/06/07 00:27:16;;;;;;;;;;;;;;;15.07;100.00;96277.75;1279341;23;20380;-72
2021/06/07 00:27:47;;;;;;;;;;;;;;;15.08;100.00;96271.28;1279238;23;19962;-72
2021/06/07 00:28:17;;;;;;;;;;;;;;;15.08;100.00;96279.34;1279291;23;20314;-72
2021/06/07 00:28:47;;;;;;;;;;;;;;;15.09;100.00;96277.47;1279271;23;19909;-72
2021/06/07 00:29:17;;;;;;;;;;;;;;;15.10;100.00;96265.63;1272744;23;19904;-72
2021/06/07 00:29:48;;;;;;;;;;;;;;;15.10;100.00;96271.00;1272798;23;19948;-72
2021/06/07 00:30:18;;;;;;;;;;;;;;;15.07;100.00;96266.19;1272833;23;19904;-72
2021/06/07 00:30:48;;;;;;;;;;;;;;;15.09;100.00;96270.19;1272840;23;20400;-72
2021/06/07 00:31:19;;;;;;;;;;;;;;;15.08;100.00;96273.97;1279335;23;19911;-72
2021/06/07 00:31:49;;;;;;;;;;;;;;;15.08;100.00;96268.59;1278715;23;19908;-72
2021/06/07 00:32:20;;;;;;;;;;;;;;;15.08;100.00;96271.28;1278918;23;19972;-72
2021/06/07 00:32:50;;;;;;;;;;;;;;;15.08;100.00;96273.97;1278965;23;19915;-72
2021/06/07 00:33:20;;;;;;;;;;;;;;;15.06;100.00;96270.78;1278918;23;19940;-72
2021/06/07 00:33:51;;;;;;;;;;;;;;;15.06;100.00;96268.09;1279337;23;19908;-72
2021/06/07 00:34:21;;;;;;;;;;;;;;;15.06;100.00;96270.78;1279313;23;19927;-72
2021/06/07 00:34:51;;;;;;;;;;;;;;;15.06;100.00;96272.66;1279292;23;19916;-72
2021/06/07 00:35:22;;;;;;;;;;;;;;;15.07;100.00;96274.28;1279215;23;19904;-72
2021/06/07 00:35:52;;;;;;;;;;;;;;;15.05;100.00;96274.56;1279213;23;19908;-72
2021/06/07 00:36:22;;;;;;;;;;;;;;;15.04;100.00;96272.16;1279342;23;19910;-72
2021/06/07 00:36:53;;;;;;;;;;;;;;;15.05;100.00;96273.78;1279178;23;20380;-72
2021/06/07 00:37:23;;;;;;;;;;;;;;;15.05;100.00;96271.88;1279273;23;19908;-72
2021/06/07 00:37:53;;;;;;;;;;;;;;;15.06;100.00;96278.84;1279223;23;19904;-72
2021/06/07 00:38:24;;;;;;;;;;;;;;;15.07;100.00;96280.44;1279220;23;20306;-72
2021/06/07 00:38:54;;;;;;;;;;;;;;;15.05;100.00;96285.34;1279171;23;19908;-72
2021/06/07 00:39:24;;;;;;;;;;;;;;;15.06;100.00;96280.75;1278828;23;19916;-72
2021/06/07 00:39:55;;;;;;;;;;;;;;;15.06;100.00;96276.16;1278788;23;19939;-72
2021/06/07 00:40:25;;;;;;;;;;;;;;;15.05;100.00;96273.78;1272641;23;20306;-72
2021/06/07 00:40:57;;;;;;;;;;;;;;;15.06;100.00;96276.16;1272696;23;19931;-72
2021/06/07 00:41:27;;;;;;;;;;;;;;;15.04;100.00;96278.31;1266625;23;19956;-72
2021/06/07 00:41:58;;;;;;;;;;;;;;;15.05;100.00;96279.94;1267001;23;19904;-72
2021/06/07 00:42:28;;;;;;;;;;;;;;;15.05;100.00;96279.94;1272747;23;20294;-72
2021/06/07 00:42:58;;;;;;;;;;;;;;;15.06;100.00;96278.06;1272742;23;19908;-72
2021/06/07 00:43:28;;;;;;;;;;;;;;;15.04;100.00;96270.25;1278949;23;19908;-72
2021/06/07 00:43:59;;;;;;;;;;;;;;;15.04;100.00;96280.22;1278903;23;19904;-72
2021/06/07 00:44:29;;;;;;;;;;;;;;;15.06;100.00;96278.84;1272691;23;20373;-72
2021/06/07 00:45:00;;;;;;;;;;;;;;;15.05;100.00;96279.94;1272808;23;19947;-72
2021/06/07 00:45:30;;;;;;;;;;;;;;;15.05;100.00;96271.88;1272723;23;20246;-72
2021/06/07 00:46:01;;;;;;;;;;;;;;;15.04;100.00;96280.22;1272844;23;19912;-72
2021/06/07 00:46:31;;;;;;;;;;;;;;;15.06;100.00;96270.78;1278867;23;19916;-72
2021/06/07 00:47:02;;;;;;;;;;;;;;;15.05;100.00;96274.56;1272697;23;19911;-72
2021/06/07 00:47:32;;;;;;;;;;;;;;;15.07;100.00;96274.28;1272398;23;19909;-72
2021/06/07 00:48:03;;;;;;;;;;;;;;;15.05;100.00;96276.47;1272669;23;19904;-72
2021/06/07 00:48:33;;;;;;;;;;;;;;;15.07;100.00;96282.34;1272940;23;19931;-72
2021/06/07 00:49:04;;;;;;;;;;;;;;;15.05;100.00;96273.78;1278885;23;19927;-72
2021/06/07 00:49:34;;;;;;;;;;;;;;;15.04;100.00;96274.84;1279222;23;19935;-72
2021/06/07 00:50:07;;;;;;;;;;;;;;;15.05;100.00;96276.47;1279169;23;19911;-72
2021/06/07 00:50:45;;;;;;;;;;;;;;;15.05;100.00;96279.16;1279199;23;20499;-72
2021/06/07 00:51:15;;;;;;;;;;;;;;;15.03;100.00;96268.66;1279203;23;19970;-72
2021/06/07 00:51:46;;;;;;;;;;;;;;;15.05;100.00;96279.16;1279184;23;19962;-72
2021/06/07 00:52:16;;;;;;;;;;;;;;;15.06;100.00;96273.47;1279172;23;20242;-72
2021/06/07 00:53:05;;;;;;;;;;;;;;;15.07;100.00;96277.75;1278782;23;19904;-72
2021/06/07 00:53:35;;;;;;;;;;;;;;;15.07;100.00;96271.56;1272601;23;19913;-72
2021/06/07 00:54:06;;;;;;;;;;;;;;;15.07;100.00;96271.56;1272558;23;19917;-72
2021/06/07 00:54:36;;;;;;;;;;;;;;;15.07;100.00;96283.13;1270462;23;20240;-72
2021/06/07 00:55:06;;;;;;;;;;;;;;;15.06;100.00;96276.16;1276559;23;19912;-72
2021/06/07 00:55:48;;;;;;;;;;;;;;;15.06;100.00;96278.84;1272649;23;19897;-73
2021/06/07 00:56:18;;;;;;;;;;;;;;;15.06;100.00;96283.44;1269010;23;19913;-72
2021/06/07 00:56:49;;;;;;;;;;;;;;;15.06;100.00;96280.75;1272650;23;19896;-72
2021/06/07 00:57:19;;;;;;;;;;;;;;;15.07;100.00;96277.75;1269045;23;20319;-72
2021/06/07 00:57:49;;;;;;;;;;;;;;;15.07;100.00;96279.66;1267033;23;19900;-72
2021/06/07 00:58:20;;;;;;;;;;;;;;;15.07;100.00;96275.06;1272748;23;19908;-72
2021/06/07 00:58:50;;;;;;;;;;;;;;;15.06;100.00;96276.16;1272915;23;20250;-72
2021/06/07 00:59:21;;;;;;;;;;;;;;;15.07;100.00;96272.38;1278914;23;19926;-72
2021/06/07 00:59:51;;;;;;;;;;;;;;;15.08;100.00;96283.94;1278857;23;19911;-72
2021/06/07 01:00:22;;;;;;;;;;;;;;;15.07;100.00;96275.06;1278942;23;19954;-72
2021/06/07 01:00:52;;;;;;;;;;;;;;;15.09;100.00;96280.16;1279247;23;20303;-72
2021/06/07 01:01:23;;;;;;;;;;;;;;;15.08;100.00;96278.56;1279243;23;19910;-72
2021/06/07 01:01:53;;;;;;;;;;;;;;;15.07;100.00;96275.06;1279186;23;19962;-72
2021/06/07 01:02:23;;;;;;;;;;;;;;;15.07;100.00;96277.75;1278892;23;19926;-72
2021/06/07 01:02:54;;;;;;;;;;;;;;;15.09;100.00;96282.84;1278872;23;19971;-72
2021/06/07 01:03:24;;;;;;;;;;;;;;;15.08;100.00;96273.97;1272639;23;20405;-73
2021/06/07 01:03:56;;;;;;;;;;;;;;;15.08;100.00;96271.28;1272679;23;19955;-72
2021/06/07 01:04:26;;;;;;;;;;;;;;;15.10;100.00;96281.78;1272687;23;19955;-72
2021/06/07 01:04:56;;;;;;;;;;;;;;;15.08;100.00;96281.25;1254980;23;20382;-72
2021/06/07 01:05:27;;;;;;;;;;;;;;;15.07;100.00;96275.06;1266616;23;19912;-72
2021/06/07 01:05:57;;;;;;;;;;;;;;;15.09;100.00;96280.16;1266576;23;19905;-72
2021/06/07 01:06:27;;;;;;;;;;;;;;;15.10;100.00;96281.78;1266686;23;20263;-72
2021/06/07 01:06:58;;;;;;;;;;;;;;;15.08;100.00;96278.56;1279210;23;19907;-72
2021/06/07 01:07:28;;;;;;;;;;;;;;;15.09;100.00;96274.75;1279238;23;19930;-72
2021/06/07 01:07:58;;;;;;;;;;;;;;;15.09;100.00;96277.47;1278829;23;20310;-72
2021/06/07 01:08:29;;;;;;;;;;;;;;;15.09;100.00;96272.06;1278842;23;19911;-72
2021/06/07 01:08:59;;;;;;;;;;;;;;;15.08;100.00;96275.88;1278828;23;19939;-72
2021/06/07 01:09:29;;;;;;;;;;;;;;;15.08;100.00;96262.41;1278923;23;20338;-73
2021/06/07 01:09:59;;;;;;;;;;;;;;;15.09;100.00;96277.47;1279180;23;19901;-72
2021/06/07 01:10:30;;;;;;;;;;;;;;;15.09;100.00;96269.38;1279264;23;19904;-72
2021/06/07 01:11:00;;;;;;;;;;;;;;;15.09;100.00;96270.19;1279198;23;19900;-72
2021/06/07 01:11:31;;;;;;;;;;;;;;;15.09;100.00;96274.75;1279284;23;20310;-72
2021/06/07 01:12:01;;;;;;;;;;;;;;;15.08;100.00;96268.59;1278838;23;20329;-72
2021/06/07 01:12:32;;;;;;;;;;;;;;;15.09;100.00;96274.75;1278896;23;19947;-72
2021/06/07 01:13:02;;;;;;;;;;;;;;;15.07;100.00;96271.56;1278787;23;19900;-72
2021/06/07 01:13:32;;;;;;;;;;;;;;;15.06;100.00;96268.09;1266726;23;19904;-72
2021/06/07 01:14:03;;;;;;;;;;;;;;;15.07;100.00;96264.31;1272641;23;20294;-72
2021/06/07 01:14:33;;;;;;;;;;;;;;;15.07;100.00;96269.69;1272722;23;19905;-73
2021/06/07 01:15:04;;;;;;;;;;;;;;;15.05;100.00;96274.56;1272693;23;20282;-72
2021/06/07 01:15:35;;;;;;;;;;;;;;;15.06;100.00;96264.59;1279163;23;19905;-72
2021/06/07 01:16:05;;;;;;;;;;;;;;;15.05;100.00;96265.69;1279119;23;20234;-72
2021/06/07 01:16:35;;;;;;;;;;;;;;;15.05;100.00;96266.50;1279191;23;19979;-72
2021/06/07 01:17:05;;;;;;;;;;;;;;;15.04;100.00;96266.75;1278689;23;19901;-72
2021/06/07 01:17:36;;;;;;;;;;;;;;;15.03;100.00;96265.97;1278878;23;19908;-72
2021/06/07 01:18:06;;;;;;;;;;;;;;;15.03;100.00;96270.56;1278815;23;20191;-72
2021/06/07 01:18:36;;;;;;;;;;;;;;;15.04;100.00;96266.75;1278774;23;19928;-72
2021/06/07 01:19:07;;;;;;;;;;;;;;;15.05;100.00;96268.38;1278788;23;20361;-72
2021/06/07 01:19:37;;;;;;;;;;;;;;;15.03;100.00;96263.28;1278811;23;19991;-72
2021/06/07 01:20:08;;;;;;;;;;;;;;;15.03;100.00;96260.59;1272645;23;19900;-71
2021/06/07 01:20:38;;;;;;;;;;;;;;;15.03;100.00;96263.28;1266066;23;19904;-71
2021/06/07 01:21:09;;;;;;;;;;;;;;;15.04;100.00;96266.75;1266308;23;19905;-72
2021/06/07 01:21:40;;;;;;;;;;;;;;;15.03;100.00;96259.78;1267148;23;19928;-71
2021/06/07 01:22:10;;;;;;;;;;;;;;;15.02;100.00;96255.50;1278575;23;20315;-72
2021/06/07 01:22:40;;;;;;;;;;;;;;;15.02;100.00;96260.88;1272640;23;19927;-72
2021/06/07 01:23:10;;;;;;;;;;;;;;;15.03;100.00;96262.47;1260397;23;20004;-71
2021/06/07 01:23:42;;;;;;;;;;;;;;;15.03;100.00;96257.09;1260521;23;19901;-71
2021/06/07 01:24:12;;;;;;;;;;;;;;;15.03;100.00;96265.16;1260356;23;19908;-71
2021/06/07 01:24:42;;;;;;;;;;;;;;;15.04;100.00;96254.09;1260766;23;19924;-71
2021/06/07 01:25:20;;;;;;;;;;;;;;;15.04;100.00;96254.09;1272808;23;19959;-71
2021/06/07 01:25:50;;;;;;;;;;;;;;;15.05;100.00;96254.94;1274133;23;19901;-71
2021/06/07 01:26:21;;;;;;;;;;;;;;;15.06;100.00;96253.84;1272619;23;19912;-72
2021/06/07 01:26:51;;;;;;;;;;;;;;;15.05;100.00;96263.81;1272570;23;19951;-71
2021/06/07 01:27:22;;;;;;;;;;;;;;;15.05;100.00;96265.69;1272513;23;19908;-72
2021/06/07 01:27:52;;;;;;;;;;;;;;;15.06;100.00;96253.84;1272161;23;19901;-71
2021/06/07 01:28:22;;;;;;;;;;;;;;;15.07;100.00;96255.44;1266409;23;19915;-72
2021/06/07 01:28:54;;;;;;;;;;;;;;;15.08;100.00;96267.78;1266431;23;20255;-71
2021/06/07 01:29:24;;;;;;;;;;;;;;;15.08;100.00;96257.81;1266374;23;19944;-71
2021/06/07 01:29:54;;;;;;;;;;;;;;;15.07;100.00;96256.22;1266746;23;19901;-71
2021/06/07 01:30:26;;;;;;;;;;;;;;;15.08;100.00;96257.81;1266710;23;19916;-72
2021/06/07 01:30:56;;;;;;;;;;;;;;;15.08;100.00;96252.44;1272826;23;19987;-72
2021/06/07 01:31:26;;;;;;;;;;;;;;;15.10;100.00;96257.53;1272548;23;19915;-72
2021/06/07 01:31:56;;;;;;;;;;;;;;;15.11;100.00;96250.28;1254679;23;19906;-72
2021/06/07 01:32:27;;;;;;;;;;;;;;;15.12;100.00;96254.56;1260489;23;19916;-72
2021/06/07 01:32:57;;;;;;;;;;;;;;;15.11;100.00;96250.28;1260519;23;19975;-71
2021/06/07 01:33:27;;;;;;;;;;;;;;;15.09;100.00;96248.66;1260581;23;19909;-71
2021/06/07 01:33:58;;;;;;;;;;;;;;;15.09;100.00;96250.53;1272644;23;19922;-71
2021/06/07 01:34:28;;;;;;;;;;;;;;;15.09;100.00;96248.66;1272603;23;19932;-71
2021/06/07 01:34:58;;;;;;;;;;;;;;;15.09;100.00;96247.84;1272562;23;20236;-72
2021/06/07 01:35:28;;;;;;;;;;;;;;;15.11;100.00;96258.34;1272713;23;19909;-71
2021/06/07 01:35:59;;;;;;;;;;;;;;;15.11;100.00;96250.28;1278830;23;19900;-71
2021/06/07 01:36:29;;;;;;;;;;;;;;;15.13;100.00;96256.16;1278852;23;19908;-71
2021/06/07 01:37:00;;;;;;;;;;;;;;;15.13;100.00;96258.84;1278996;23;20264;-71
2021/06/07 01:37:30;;;;;;;;;;;;;;;15.15;100.00;96256.66;1278670;23;19963;-71
2021/06/07 01:38:01;;;;;;;;;;;;;;;15.15;100.00;96251.25;1278764;23;20329;-70
2021/06/07 01:38:31;;;;;;;;;;;;;;;15.14;100.00;96252.34;1272664;23;20010;-70
2021/06/07 01:39:02;;;;;;;;;;;;;;;15.15;100.00;96259.34;1272723;23;20435;-71
2021/06/07 01:39:32;;;;;;;;;;;;;;;15.15;100.00;96256.66;1278705;23;19915;-71
2021/06/07 01:40:03;;;;;;;;;;;;;;;15.16;100.00;96253.69;1278753;23;19999;-71
2021/06/07 01:40:34;;;;;;;;;;;;;;;15.13;100.00;96256.94;1272476;23;20010;-71
2021/06/07 01:41:06;;;;;;;;;;;;;;;15.14;100.00;96255.84;1272564;23;19987;-71
2021/06/07 01:41:36;;;;;;;;;;;;;;;15.15;100.00;96257.47;1272684;23;19904;-71
2021/06/07 01:42:06;;;;;;;;;;;;;;;15.16;100.00;96258.28;1272899;23;19904;-71
2021/06/07 01:42:36;;;;;;;;;;;;;;;15.17;100.00;96257.97;1278782;23;19904;-72
2021/06/07 01:43:07;;;;;;;;;;;;;;;15.17;100.00;96263.34;1278596;23;20321;-71
2021/06/07 01:43:38;;;;;;;;;;;;;;;15.16;100.00;96253.69;1278737;23;19986;-70
2021/06/07 01:44:08;;;;;;;;;;;;;;;15.15;100.00;96256.66;1272473;23;20026;-71
2021/06/07 01:44:38;;;;;;;;;;;;;;;15.16;100.00;96253.69;1272644;23;19905;-71
2021/06/07 01:45:09;;;;;;;;;;;;;;;15.16;100.00;96259.06;1272614;23;20282;-71
2021/06/07 01:45:40;;;;;;;;;;;;;;;15.15;100.00;96257.47;1272528;23;19904;-72
2021/06/07 01:46:10;;;;;;;;;;;;;;;15.16;100.00;96247.50;1266501;23;19940;-73
2021/06/07 01:46:40;;;;;;;;;;;;;;;15.17;100.00;96251.78;1266557;23;19905;-71
2021/06/07 01:47:11;;;;;;;;;;;;;;;15.19;100.00;96260.34;1260516;23;19928;-70
2021/06/07 01:47:41;;;;;;;;;;;;;;;15.16;100.00;96253.69;1272179;23;19950;-71
2021/06/07 01:48:12;;;;;;;;;;;;;;;15.16;100.00;96255.56;1278388;23;19959;-70
2021/06/07 01:48:42;;;;;;;;;;;;;;;15.15;100.00;96252.09;1266447;23;20387;-72
2021/06/07 01:49:12;;;;;;;;;;;;;;;15.15;100.00;96246.69;1272609;23;19967;-72
2021/06/07 01:49:43;;;;;;;;;;;;;;;15.14;100.00;96252.34;1272590;23;19905;-73
2021/06/07 01:50:13;;;;;;;;;;;;;;;15.15;100.00;96256.66;1272684;23;20322;-72
2021/06/07 01:50:44;;;;;;;;;;;;;;;15.16;100.00;96258.28;1278737;23;19904;-72
2021/06/07 01:51:14;;;;;;;;;;;;;;;15.17;100.00;96249.09;1278728;23;19975;-71
2021/06/07 01:51:44;;;;;;;;;;;;;;;15.14;100.00;96247.78;1279172;23;19904;-71
2021/06/07 01:52:14;;;;;;;;;;;;;;;15.13;100.00;96248.88;1279048;23;19904;-70
2021/06/07 01:52:45;;;;;;;;;;;;;;;15.15;100.00;96252.09;1278642;23;19923;-70
2021/06/07 01:53:16;;;;;;;;;;;;;;;15.17;100.00;96257.16;1272408;23;20278;-71
2021/06/07 01:53:46;;;;;;;;;;;;;;;15.17;100.00;96249.09;1272648;23;20381;-70
2021/06/07 01:54:17;;;;;;;;;;;;;;;15.16;100.00;96253.69;1272817;23;19897;-71
2021/06/07 01:54:47;;;;;;;;;;;;;;;15.17;100.00;96257.16;1278761;23;19904;-72
2021/06/07 01:55:21;;;;;;;;;;;;;;;15.18;100.00;96253.38;1279070;23;20235;-71
2021/06/07 01:55:52;;;;;;;;;;;;;;;15.20;100.00;96256.56;1279123;23;19907;-71
2021/06/07 01:56:22;;;;;;;;;;;;;;;15.20;100.00;96251.19;1278568;23;20334;-71
2021/06/07 01:56:53;;;;;;;;;;;;;;;15.19;100.00;96246.91;1278631;23;19900;-71
2021/06/07 01:57:23;;;;;;;;;;;;;;;15.19;100.00;96257.66;1278716;23;19924;-71
2021/06/07 01:57:53;;;;;;;;;;;;;;;15.19;100.00;96250.38;1266586;23;19905;-71
2021/06/07 01:58:24;;;;;;;;;;;;;;;15.17;100.00;96249.09;1272523;23;19975;-71
2021/06/07 01:58:54;;;;;;;;;;;;;;;15.19;100.00;96249.59;1272518;23;19905;-71
2021/06/07 01:59:24;;;;;;;;;;;;;;;15.21;100.00;96250.91;1272569;23;20299;-72
2021/06/07 01:59:54;;;;;;;;;;;;;;;15.20;100.00;96252.00;1279119;23;19908;-71
2021/06/07 02:00:26;;;;;;;;;;;;;;;15.20;100.00;96252.00;1278599;23;19900;-71
2021/06/07 02:00:59;;;;;;;;;;;;;;;15.20;100.00;96243.94;1266459;23;20003;-72
2021/06/07 02:01:29;;;;;;;;;;;;;;;15.21;100.00;96247.41;1260459;23;19980;-71
2021/06/07 02:02:00;;;;;;;;;;;;;;;15.20;100.00;96253.88;1261227;23;19909;-71
2021/06/07 02:02:30;;;;;;;;;;;;;;;15.20;100.00;96248.50;1261460;23;19982;-71
2021/06/07 02:03:00;;;;;;;;;;;;;;;15.22;100.00;96254.41;1272604;23;19911;-71
2021/06/07 02:03:30;;;;;;;;;;;;;;;15.22;100.00;96252.50;1272448;23;20349;-71
2021/06/07 02:04:01;;;;;;;;;;;;;;;15.22;100.00;96249.00;1266515;23;19904;-71
2021/06/07 02:04:31;;;;;;;;;;;;;;;15.22;100.00;96249.00;1272491;23;19927;-71
2021/06/07 02:05:02;;;;;;;;;;;;;;;15.22;100.00;96254.41;1272643;23;19932;-71
2021/06/07 02:05:33;;;;;;;;;;;;;;;15.22;100.00;96249.00;1272696;23;19982;-71
2021/06/07 02:06:04;;;;;;;;;;;;;;;15.22;100.00;96246.31;1272614;23;19912;-71
2021/06/07 02:06:35;;;;;;;;;;;;;;;15.22;100.00;96249.00;1273012;23;19932;-71
2021/06/07 02:07:05;;;;;;;;;;;;;;;15.23;100.00;96247.91;1278707;23;20381;-72
2021/06/07 02:07:35;;;;;;;;;;;;;;;15.23;100.00;96253.31;1278660;23;20338;-71
2021/06/07 02:08:07;;;;;;;;;;;;;;;15.23;100.00;96250.59;1272492;23;19905;-71
2021/06/07 02:08:37;;;;;;;;;;;;;;;15.22;100.00;96241.72;1266403;23;20311;-71
2021/06/07 02:09:07;;;;;;;;;;;;;;;15.21;100.00;96245.53;1260424;23;19905;-71
2021/06/07 02:09:39;;;;;;;;;;;;;;;15.19;100.00;96246.91;1260926;23;19957;-72
2021/06/07 02:10:09;;;;;;;;;;;;;;;15.20;100.00;96257.41;1272665;23;19911;-71
2021/06/07 02:10:40;;;;;;;;;;;;;;;15.21;100.00;96250.13;1272433;23;19943;-71
2021/06/07 02:11:11;;;;;;;;;;;;;;;15.21;100.00;96253.59;1272555;23;19947;-71
2021/06/07 02:11:42;;;;;;;;;;;;;;;15.21;100.00;96250.13;1266785;23;19928;-71
2021/06/07 02:12:12;;;;;;;;;;;;;;;15.22;100.00;96255.19;1272897;23;19905;-71
2021/06/07 02:12:42;;;;;;;;;;;;;;;15.20;100.00;96253.88;1278747;23;19933;-72
2021/06/07 02:13:13;;;;;;;;;;;;;;;15.21;100.00;96248.22;1272668;23;19904;-71
2021/06/07 02:13:49;;;;;;;;;;;;;;;15.21;100.00;96255.50;1278690;23;19904;-71
2021/06/07 02:14:19;;;;;;;;;;;;;;;15.20;100.00;96251.19;1266358;23;19904;-71
2021/06/07 02:14:49;;;;;;;;;;;;;;;15.20;100.00;96254.69;1267660;23;19908;-71
2021/06/07 02:15:20;;;;;;;;;;;;;;;15.20;100.00;96248.50;1260412;23;19905;-72
2021/06/07 02:15:53;;;;;;;;;;;;;;;15.21;100.00;96250.13;1260370;23;19906;-71
2021/06/07 02:16:25;;;;;;;;;;;;;;;15.22;100.00;96246.31;1272525;23;20340;-72
2021/06/07 02:16:55;;;;;;;;;;;;;;;15.22;100.00;96247.13;1267943;23;19905;-71
2021/06/07 02:17:25;;;;;;;;;;;;;;;15.21;100.00;96250.13;1278704;23;19908;-71
2021/06/07 02:17:59;;;;;;;;;;;;;;;15.22;100.00;96257.88;1278679;23;20318;-71
2021/06/07 02:18:29;;;;;;;;;;;;;;;15.21;100.00;96250.91;1278724;23;20329;-72
2021/06/07 02:19:01;;;;;;;;;;;;;;;15.22;100.00;96249.00;1279042;23;19904;-72
2021/06/07 02:19:31;;;;;;;;;;;;;;;15.22;100.00;96251.72;1278641;23;19900;-72
2021/06/07 02:20:03;;;;;;;;;;;;;;;15.24;100.00;96261.06;1278661;23;19908;-72
2021/06/07 02:20:33;;;;;;;;;;;;;;;15.24;100.00;96254.91;1278660;23;19901;-71
2021/06/07 02:21:09;;;;;;;;;;;;;;;15.23;100.00;96250.59;1278740;23;19975;-71
2021/06/07 02:21:40;;;;;;;;;;;;;;;15.22;100.00;96257.09;1278692;23;20364;-72
2021/06/07 02:22:10;;;;;;;;;;;;;;;15.22;100.00;96251.72;1272585;23;19904;-72
2021/06/07 02:22:41;;;;;;;;;;;;;;;15.23;100.00;96258.69;1266306;23;19901;-71
2021/06/07 02:23:12;;;;;;;;;;;;;;;15.22;100.00;96257.09;1266565;23;19905;-71
2021/06/07 02:23:42;;;;;;;;;;;;;;;15.23;100.00;96254.09;1266755;23;19901;-72
2021/06/07 02:24:12;;;;;;;;;;;;;;;15.23;100.00;96256.00;1272812;23;20330;-71
2021/06/07 02:24:42;;;;;;;;;;;;;;;15.23;100.00;96258.69;1278636;23;19931;-71
2021/06/07 02:25:14;;;;;;;;;;;;;;;15.23;100.00;96256.00;1278764;23;19904;-72
2021/06/07 02:25:44;;;;;;;;;;;;;;;15.23;100.00;96250.59;1272703;23;19907;-71
2021/06/07 02:26:14;;;;;;;;;;;;;;;15.20;100.00;96251.19;1278756;23;19904;-71
2021/06/07 02:26:45;;;;;;;;;;;;;;;15.19;100.00;96257.66;1278666;23;19900;-71
2021/06/07 02:27:15;;;;;;;;;;;;;;;15.18;100.00;96256.06;1278661;23;19904;-72
2021/06/07 02:27:45;;;;;;;;;;;;;;;15.18;100.00;96250.69;1279044;23;19901;-71
2021/06/07 02:28:16;;;;;;;;;;;;;;;15.18;100.00;96250.69;1278770;23;19931;-72
2021/06/07 02:28:50;;;;;;;;;;;;;;;15.20;100.00;96253.88;1272384;23;20301;-71
2021/06/07 02:29:20;;;;;;;;;;;;;;;15.18;100.00;96246.09;1266510;23;19943;-72
2021/06/07 02:29:50;;;;;;;;;;;;;;;15.17;100.00;96249.88;1267186;23;19905;-71
2021/06/07 02:30:22;;;;;;;;;;;;;;;15.18;100.00;96250.69;1273252;23;20302;-71
2021/06/07 02:30:52;;;;;;;;;;;;;;;15.19;100.00;96253.06;1278651;23;20337;-72
2021/06/07 02:31:22;;;;;;;;;;;;;;;15.18;100.00;96251.47;1278766;23;19911;-71
2021/06/07 02:31:53;;;;;;;;;;;;;;;15.19;100.00;96252.28;1278606;23;19959;-71
2021/06/07 02:32:23;;;;;;;;;;;;;;;15.17;100.00;96249.88;1278718;23;19975;-71
2021/06/07 02:32:54;;;;;;;;;;;;;;;15.18;100.00;96250.69;1278657;23;19911;-71
2021/06/07 02:33:24;;;;;;;;;;;;;;;15.18;100.00;96256.06;1278614;23;20353;-71
2021/06/07 02:33:55;;;;;;;;;;;;;;;15.18;100.00;96256.06;1272303;23;19930;-72
2021/06/07 02:34:25;;;;;;;;;;;;;;;15.18;100.00;96258.75;1272607;23;19905;-71
2021/06/07 02:34:55;;;;;;;;;;;;;;;15.18;100.00;96256.88;1272503;23;19904;-72
2021/06/07 02:35:25;;;;;;;;;;;;;;;15.19;100.00;96257.66;1278653;23;19940;-71
2021/06/07 02:35:56;;;;;;;;;;;;;;;15.22;100.00;96257.09;1279011;23;19951;-71
2021/06/07 02:36:28;;;;;;;;;;;;;;;15.21;100.00;96255.50;1278694;23;20364;-71
2021/06/07 02:36:58;;;;;;;;;;;;;;;15.21;100.00;96250.91;1278593;23;20421;-71
2021/06/07 02:37:28;;;;;;;;;;;;;;;15.22;100.00;96251.72;1278678;23;19954;-71